Time;durP1;ratioP1;P1;durP2;ratioP2;P2;SDS_P1;SDS_P2;PMS_P1;PMS_P2;Temp;Humidity;BMP_temperature;BMP_pressure;BME280_temperature;BME280_humidity;BME280_pressure;Samples;Min_cycle;Max_cycle;Signal;HPM_P1;HPM_P2
2021/08/30 00:02:02;;;;;;;6.57;5.90;;;13.70;99.90;;;;;;5071748;28;20639;-82
2021/08/30 00:04:30;;;;;;;7.90;6.43;;;13.80;99.90;;;;;;5063883;28;20621;-82
2021/08/30 00:06:57;;;;;;;7.50;6.80;;;13.80;99.90;;;;;;5070854;28;20635;-82
2021/08/30 00:09:24;;;;;;;7.03;6.40;;;13.70;99.90;;;;;;5062029;28;20733;-82
2021/08/30 00:11:52;;;;;;;8.30;7.50;;;13.70;99.90;;;;;;5059267;28;20621;-82
2021/08/30 00:14:19;;;;;;;9.03;8.00;;;13.70;99.90;;;;;;5071865;28;20652;-83
2021/08/30 00:16:46;;;;;;;9.27;8.00;;;13.70;99.90;;;;;;5070357;28;20717;-82
2021/08/30 00:19:13;;;;;;;8.97;8.07;;;13.70;99.90;;;;;;5058693;28;20645;-82
2021/08/30 00:21:40;;;;;;;8.87;7.83;;;13.70;99.90;;;;;;5068706;28;21270;-82
2021/08/30 00:24:07;;;;;;;8.57;7.67;;;13.70;99.90;;;;;;5064433;28;20618;-82
2021/08/30 00:26:34;;;;;;;8.53;7.23;;;13.70;99.90;;;;;;5071324;28;20617;-82
2021/08/30 00:29:02;;;;;;;9.47;7.20;;;13.70;99.90;;;;;;5065088;28;21184;-83
2021/08/30 00:31:30;;;;;;;9.30;8.00;;;13.70;99.90;;;;;;5050344;28;21017;-82
2021/08/30 00:33:57;;;;;;;9.53;8.20;;;13.70;99.90;;;;;;5061068;28;20744;-82
2021/08/30 00:36:25;;;;;;;8.50;7.60;;;13.70;99.90;;;;;;5069133;28;20680;-82
2021/08/30 00:38:53;;;;;;;11.63;9.37;;;13.70;99.90;;;;;;5046190;28;20660;-82
2021/08/30 00:41:20;;;;;;;10.03;9.00;;;13.70;99.90;;;;;;5068651;28;20625;-83
2021/08/30 00:43:47;;;;;;;9.57;8.60;;;13.80;99.90;;;;;;5064784;28;20606;-83
2021/08/30 00:46:17;;;;;;;9.67;8.73;;;13.80;99.90;;;;;;5058974;28;20980;-83
2021/08/30 00:48:46;;;;;;;10.63;9.57;;;13.80;99.90;;;;;;5052656;28;20662;-82
2021/08/30 00:51:14;;;;;;;11.40;9.33;;;13.90;99.90;;;;;;5061591;28;20663;-83
2021/08/30 00:53:42;;;;;;;9.10;8.20;;;13.90;99.90;;;;;;5067050;28;20619;-82
2021/08/30 00:56:09;;;;;;;8.90;8.00;;;13.90;99.90;;;;;;5074723;28;20609;-82
2021/08/30 00:58:35;;;;;;;8.90;8.00;;;13.80;99.90;;;;;;5072911;28;20621;-83
2021/08/30 01:01:03;;;;;;;8.87;7.97;;;13.90;99.90;;;;;;5068681;28;21153;-83
2021/08/30 01:03:33;;;;;;;8.57;7.77;;;13.90;99.90;;;;;;5062286;28;20760;-83
2021/08/30 01:06:09;;;;;;;9.47;8.57;;;13.90;99.90;;;;;;5050781;28;20628;-83
2021/08/30 01:08:44;;;;;;;10.67;9.57;;;13.90;99.90;;;;;;5050424;28;20630;-83
2021/08/30 01:11:18;;;;;;;9.03;8.23;;;13.80;99.90;;;;;;5050507;28;20630;-83
2021/08/30 01:13:54;;;;;;;9.40;8.57;;;13.80;99.90;;;;;;5050047;28;20977;-83
2021/08/30 01:16:25;;;;;;;9.10;8.30;;;13.90;99.90;;;;;;5059650;28;20732;-83
2021/08/30 01:18:59;;;;;;;9.17;8.27;;;13.90;99.90;;;;;;5070155;28;20671;-83
2021/08/30 01:21:32;;;;;;;9.33;8.40;;;13.80;99.90;;;;;;5064770;28;21221;-83
2021/08/30 01:24:05;;;;;;;9.53;8.63;;;13.80;99.90;;;;;;5057839;28;20630;-82
2021/08/30 01:26:38;;;;;;;9.63;8.67;;;13.80;99.90;;;;;;5052505;28;20624;-82
2021/08/30 01:29:17;;;;;;;9.50;8.70;;;13.90;99.90;;;;;;5067046;28;21183;-83
2021/08/30 01:31:53;;;;;;;12.80;9.50;;;13.90;99.90;;;;;;5050669;28;21095;-83
2021/08/30 01:34:25;;;;;;;10.57;9.57;;;13.90;99.90;;;;;;5060054;28;20641;-83
2021/08/30 01:36:54;;;;;;;9.77;8.77;;;13.90;99.90;;;;;;5070150;28;20618;-82
2021/08/30 01:39:29;;;;;;;9.83;8.83;;;13.90;99.90;;;;;;5059913;28;20666;-83
2021/08/30 01:41:58;;;;;;;10.50;9.50;;;13.80;99.90;;;;;;5052064;28;20660;-82
2021/08/30 01:44:27;;;;;;;10.67;9.67;;;13.80;99.90;;;;;;5068592;28;20634;-83
2021/08/30 01:46:57;;;;;;;10.37;9.47;;;13.80;99.90;;;;;;5057631;28;20657;-83
2021/08/30 01:49:28;;;;;;;11.57;10.57;;;13.80;99.90;;;;;;5049425;28;20999;-83
2021/08/30 01:51:57;;;;;;;9.67;8.77;;;13.90;99.90;;;;;;5068952;28;20633;-82
2021/08/30 01:54:25;;;;;;;11.03;9.90;;;13.90;99.90;;;;;;5068310;28;20659;-83
2021/08/30 01:56:56;;;;;;;10.80;9.70;;;13.80;99.90;;;;;;5069911;28;20608;-83
2021/08/30 02:02:11;;;;;;;9.27;8.37;;;13.80;99.90;;;;;;5069221;28;20768;-83
2021/08/30 02:04:40;;;;;;;9.30;8.43;;;13.90;99.90;;;;;;5065475;28;20622;-83
2021/08/30 02:07:08;;;;;;;10.37;9.37;;;13.80;99.90;;;;;;5050800;28;21037;-83
2021/08/30 02:09:40;;;;;;;8.90;8.10;;;13.90;99.90;;;;;;5062892;28;20641;-82
2021/08/30 02:12:12;;;;;;;9.73;8.60;;;13.90;99.90;;;;;;5063660;28;20659;-82
2021/08/30 02:14:44;;;;;;;9.63;8.73;;;13.90;99.90;;;;;;5069381;28;20688;-82
2021/08/30 02:17:22;;;;;;;10.63;9.53;;;13.90;99.90;;;;;;5062016;28;20622;-82
2021/08/30 02:19:56;;;;;;;9.90;8.90;;;13.90;99.90;;;;;;5068111;28;21655;-82
2021/08/30 02:22:30;;;;;;;9.13;8.33;;;13.80;99.90;;;;;;5060176;28;21041;-82
2021/08/30 02:25:01;;;;;;;10.43;8.10;;;13.90;99.90;;;;;;5049634;28;21292;-83
2021/08/30 02:27:40;;;;;;;9.80;8.87;;;13.80;99.90;;;;;;5054112;28;20625;-82
2021/08/30 02:30:14;;;;;;;11.90;8.90;;;13.80;99.90;;;;;;5057073;28;20630;-80
2021/08/30 02:32:44;;;;;;;9.27;8.43;;;13.80;99.90;;;;;;5049713;28;21152;-81
2021/08/30 02:35:19;;;;;;;10.10;8.90;;;13.80;99.90;;;;;;5061199;28;20761;-80
2021/08/30 02:37:51;;;;;;;10.43;9.53;;;13.80;99.90;;;;;;5053826;28;20637;-81
2021/08/30 02:40:22;;;;;;;10.40;9.30;;;13.80;99.90;;;;;;5064834;28;20634;-81
2021/08/30 02:42:51;;;;;;;10.87;8.67;;;13.80;99.90;;;;;;5058725;28;20664;-80
2021/08/30 02:45:19;;;;;;;9.93;8.93;;;13.80;99.90;;;;;;5051654;28;21230;-81
2021/08/30 02:47:49;;;;;;;9.17;8.37;;;13.80;99.90;;;;;;5062499;28;20635;-80
2021/08/30 02:50:20;;;;;;;10.60;8.40;;;13.80;99.90;;;;;;5056182;28;20622;-81
2021/08/30 02:52:52;;;;;;;9.67;8.77;;;13.80;99.90;;;;;;5063997;28;20636;-81
2021/08/30 02:55:25;;;;;;;8.13;7.43;;;13.70;99.90;;;;;;5049039;28;20674;-81
2021/08/30 02:57:54;;;;;;;7.53;6.90;;;13.70;99.90;;;;;;5043237;28;20654;-80
2021/08/30 03:00:22;;;;;;;7.87;7.17;;;13.70;99.90;;;;;;5053179;28;20680;-81
2021/08/30 03:02:50;;;;;;;6.87;6.27;;;13.70;99.90;;;;;;5058715;28;20712;-80
2021/08/30 03:05:21;;;;;;;7.10;6.50;;;13.60;99.90;;;;;;5057725;28;20633;-80
2021/08/30 03:07:49;;;;;;;7.83;6.37;;;13.60;99.90;;;;;;5064913;28;20655;-80
2021/08/30 03:10:18;;;;;;;7.90;7.10;;;13.70;99.90;;;;;;5052646;28;20624;-81
2021/08/30 03:12:47;;;;;;;7.23;6.53;;;13.70;99.90;;;;;;5068325;28;20653;-82
2021/08/30 03:15:19;;;;;;;8.60;7.00;;;13.60;99.90;;;;;;5065743;28;20660;-80
2021/08/30 03:17:51;;;;;;;7.20;6.50;;;13.60;99.90;;;;;;5055079;28;20641;-81
2021/08/30 03:20:26;;;;;;;8.67;7.17;;;13.60;99.90;;;;;;5072636;28;21232;-81
2021/08/30 03:22:57;;;;;;;8.13;7.43;;;13.60;99.90;;;;;;5070776;28;20622;-80
2021/08/30 03:25:33;;;;;;;7.50;6.80;;;13.50;99.90;;;;;;5072547;28;20652;-81
2021/08/30 03:28:03;;;;;;;7.10;6.40;;;13.50;99.90;;;;;;5063124;28;21647;-80
2021/08/30 03:30:31;;;;;;;6.40;5.80;;;13.50;99.90;;;;;;5052452;28;20636;-81
2021/08/30 03:33:00;;;;;;;6.17;5.67;;;13.60;99.90;;;;;;5059916;28;20628;-81
2021/08/30 03:35:30;;;;;;;6.77;6.17;;;13.60;99.90;;;;;;5066503;28;21084;-81
2021/08/30 03:37:57;;;;;;;7.10;6.53;;;13.50;99.90;;;;;;5052485;28;20621;-80
2021/08/30 03:40:25;;;;;;;6.10;5.57;;;13.60;99.90;;;;;;5055071;28;20649;-81
2021/08/30 03:42:53;;;;;;;7.20;6.60;;;13.60;99.90;;;;;;5060171;28;20617;-81
2021/08/30 03:45:20;;;;;;;8.10;7.40;;;13.60;99.90;;;;;;5055028;28;20704;-81
2021/08/30 03:47:47;;;;;;;9.80;6.47;;;13.60;99.90;;;;;;5053736;28;20618;-81
2021/08/30 03:50:15;;;;;;;8.03;7.33;;;13.60;99.90;;;;;;5052283;28;20630;-81
2021/08/30 03:52:43;;;;;;;8.63;7.93;;;13.60;99.90;;;;;;5052824;28;20660;-81
2021/08/30 03:55:11;;;;;;;7.83;7.13;;;13.60;99.90;;;;;;5070265;28;21301;-81
2021/08/30 03:57:39;;;;;;;8.73;7.90;;;13.60;99.90;;;;;;5057734;28;20629;-81
2021/08/30 04:00:08;;;;;;;8.33;7.67;;;13.60;99.90;;;;;;5067642;28;20610;-82
2021/08/30 04:02:37;;;;;;;8.53;7.63;;;13.50;99.90;;;;;;5053090;28;20618;-82
2021/08/30 04:05:05;;;;;;;8.27;7.57;;;13.60;99.90;;;;;;5070782;28;20631;-81
2021/08/30 04:07:33;;;;;;;9.00;7.93;;;13.60;99.90;;;;;;5073165;28;20997;-81
2021/08/30 04:10:02;;;;;;;8.80;7.87;;;13.60;99.90;;;;;;5070024;28;20739;-81
2021/08/30 04:12:29;;;;;;;8.67;7.87;;;13.60;99.90;;;;;;5070851;28;20706;-80
2021/08/30 04:14:57;;;;;;;9.07;8.20;;;13.50;99.90;;;;;;5052810;28;20664;-81
2021/08/30 04:17:24;;;;;;;10.13;8.97;;;13.50;99.90;;;;;;5059102;28;20682;-81
2021/08/30 04:19:51;;;;;;;10.93;9.57;;;13.60;99.90;;;;;;5071700;28;20973;-81
2021/08/30 04:22:18;;;;;;;12.43;11.20;;;13.60;99.90;;;;;;5054276;28;20627;-81
2021/08/30 04:24:45;;;;;;;9.50;8.63;;;13.60;99.90;;;;;;5051696;28;20630;-82
2021/08/30 04:27:13;;;;;;;8.90;7.80;;;13.70;99.90;;;;;;5070360;28;20708;-81
2021/08/30 04:29:40;;;;;;;8.37;7.57;;;13.70;99.90;;;;;;5072018;28;20970;-82
2021/08/30 04:32:09;;;;;;;8.70;7.80;;;13.70;99.90;;;;;;5052587;28;20721;-81
2021/08/30 04:34:38;;;;;;;8.00;7.23;;;13.80;99.90;;;;;;5055617;28;20624;-81
2021/08/30 04:37:05;;;;;;;9.30;8.40;;;13.80;99.90;;;;;;5069681;28;20653;-82
2021/08/30 04:39:32;;;;;;;8.63;7.13;;;13.70;99.90;;;;;;5069600;28;20629;-82
2021/08/30 04:41:59;;;;;;;10.63;8.40;;;13.80;99.90;;;;;;5060125;28;21092;-81
2021/08/30 04:44:27;;;;;;;13.13;10.30;;;13.80;99.90;;;;;;5054606;28;20622;-81
2021/08/30 04:46:54;;;;;;;11.00;9.90;;;13.80;99.90;;;;;;5052367;28;20629;-81
2021/08/30 04:49:21;;;;;;;12.83;11.30;;;13.80;99.90;;;;;;5052233;28;20621;-81
2021/08/30 04:51:48;;;;;;;12.10;10.90;;;13.70;99.90;;;;;;5063403;28;20641;-80
2021/08/30 04:54:15;;;;;;;13.97;11.87;;;13.70;99.90;;;;;;5061813;28;20669;-81
2021/08/30 04:56:42;;;;;;;11.03;9.93;;;13.80;99.90;;;;;;5056126;28;20681;-81
2021/08/30 04:59:09;;;;;;;12.53;11.10;;;13.80;99.90;;;;;;5050822;28;21195;-81
2021/08/30 05:01:37;;;;;;;9.90;8.57;;;13.80;99.90;;;;;;5053612;28;21163;-81
2021/08/30 05:04:04;;;;;;;13.50;10.10;;;13.80;99.90;;;;;;5059785;28;20626;-80
2021/08/30 05:06:31;;;;;;;10.97;9.33;;;13.80;99.90;;;;;;5070128;28;20621;-80
2021/08/30 05:08:58;;;;;;;10.47;9.20;;;13.80;99.90;;;;;;5056860;28;20622;-80
2021/08/30 05:11:25;;;;;;;11.53;9.40;;;13.90;99.90;;;;;;5061620;28;20626;-80
2021/08/30 05:13:52;;;;;;;10.50;9.20;;;13.90;99.90;;;;;;5062369;28;20749;-79
2021/08/30 05:16:19;;;;;;;9.30;7.83;;;13.90;99.90;;;;;;5062421;28;21280;-80
2021/08/30 05:18:47;;;;;;;9.07;8.27;;;13.90;99.90;;;;;;5063399;28;20655;-81
2021/08/30 05:21:14;;;;;;;6.93;6.17;;;13.90;99.90;;;;;;5057053;28;20629;-81
2021/08/30 05:23:41;;;;;;;6.70;6.10;;;13.90;99.90;;;;;;5062110;28;20722;-82
2021/08/30 05:26:08;;;;;;;10.93;8.00;;;13.90;99.90;;;;;;5062366;28;20688;-82
2021/08/30 05:28:35;;;;;;;9.87;8.83;;;13.90;99.90;;;;;;5059997;28;20645;-82
2021/08/30 05:31:02;;;;;;;9.87;8.37;;;13.80;99.90;;;;;;5063031;28;20710;-82
2021/08/30 05:33:29;;;;;;;10.80;9.07;;;13.80;99.90;;;;;;5051973;28;20624;-81
2021/08/30 05:35:57;;;;;;;11.40;9.27;;;13.80;99.90;;;;;;5057389;28;20666;-81
2021/08/30 05:38:24;;;;;;;10.40;8.77;;;13.80;99.90;;;;;;5062166;28;20775;-81
2021/08/30 05:40:51;;;;;;;10.87;9.30;;;13.80;99.90;;;;;;5057424;28;20629;-81
2021/08/30 05:43:18;;;;;;;10.80;9.70;;;13.90;99.90;;;;;;5055362;28;20691;-80
2021/08/30 05:45:46;;;;;;;11.90;10.27;;;13.90;99.90;;;;;;5058085;28;20672;-81
2021/08/30 05:48:13;;;;;;;10.83;9.50;;;13.80;99.90;;;;;;5057861;28;20618;-81
2021/08/30 05:50:40;;;;;;;13.00;10.47;;;13.80;99.90;;;;;;5056193;28;21034;-81
2021/08/30 05:53:08;;;;;;;10.17;9.23;;;13.80;99.90;;;;;;5056323;28;20725;-80
2021/08/30 05:55:35;;;;;;;10.70;8.43;;;13.80;99.90;;;;;;5059760;28;20657;-81
2021/08/30 05:58:02;;;;;;;9.50;8.43;;;13.80;99.90;;;;;;5059462;28;20629;-81
2021/08/30 06:00:29;;;;;;;10.50;9.50;;;13.90;99.90;;;;;;5055992;28;20711;-79
2021/08/30 06:02:56;;;;;;;13.73;9.13;;;13.90;99.90;;;;;;5050135;28;20634;-82
2021/08/30 06:05:23;;;;;;;11.67;10.43;;;13.90;99.90;;;;;;5054263;28;20656;-82
2021/08/30 06:07:50;;;;;;;12.23;10.73;;;13.90;99.90;;;;;;5054312;28;20633;-81
2021/08/30 06:10:19;;;;;;;11.77;10.67;;;13.90;99.90;;;;;;5060998;28;20619;-82
2021/08/30 06:12:46;;;;;;;11.67;9.80;;;13.90;99.90;;;;;;5055362;28;20970;-83
2021/08/30 06:15:13;;;;;;;12.97;10.63;;;13.80;99.90;;;;;;5062481;28;21005;-83
2021/08/30 06:17:40;;;;;;;12.83;11.20;;;13.90;99.90;;;;;;5067174;28;20678;-83
2021/08/30 06:20:08;;;;;;;12.90;11.13;;;13.90;99.90;;;;;;5067990;28;21185;-83
2021/08/30 06:22:35;;;;;;;15.70;11.80;;;13.90;99.90;;;;;;5058967;28;20622;-83
2021/08/30 06:25:02;;;;;;;16.00;11.37;;;13.90;99.90;;;;;;5058741;28;20626;-81
2021/08/30 06:27:30;;;;;;;11.27;10.00;;;13.90;99.90;;;;;;5059756;28;20639;-83
2021/08/30 06:29:57;;;;;;;13.80;11.70;;;13.90;99.90;;;;;;5056793;28;20626;-83
2021/08/30 06:32:24;;;;;;;12.40;11.10;;;14.00;99.90;;;;;;5067503;28;20623;-82
2021/08/30 06:34:51;;;;;;;13.83;11.93;;;14.00;99.90;;;;;;5066222;28;20644;-82
2021/08/30 06:37:18;;;;;;;12.40;10.63;;;14.00;99.90;;;;;;5072249;28;20663;-82
2021/08/30 06:39:45;;;;;;;12.60;11.30;;;14.10;99.90;;;;;;5059142;28;21194;-83
2021/08/30 06:42:12;;;;;;;11.57;10.37;;;14.10;99.90;;;;;;5064357;28;20629;-82
2021/08/30 06:44:41;;;;;;;13.57;11.33;;;14.20;99.90;;;;;;5072968;28;20704;-83
2021/08/30 06:47:08;;;;;;;12.87;11.50;;;14.30;99.90;;;;;;5067450;28;20630;-80
2021/08/30 06:49:34;;;;;;;13.30;11.90;;;14.40;99.90;;;;;;5059261;28;20984;-82
2021/08/30 06:52:01;;;;;;;11.40;9.83;;;14.40;99.90;;;;;;5054097;28;21163;-81
2021/08/30 06:54:28;;;;;;;10.67;9.47;;;14.40;99.90;;;;;;5053464;28;20621;-82
2021/08/30 06:56:55;;;;;;;12.10;10.37;;;14.50;99.90;;;;;;5060398;28;20656;-82
2021/08/30 06:59:22;;;;;;;11.27;10.13;;;14.50;99.90;;;;;;5058432;28;20623;-82
2021/08/30 07:01:51;;;;;;;10.43;9.40;;;14.50;99.90;;;;;;5062831;28;20637;-82
2021/08/30 07:04:18;;;;;;;12.33;11.03;;;14.50;99.90;;;;;;5071629;28;20625;-81
2021/08/30 07:06:48;;;;;;;11.77;10.50;;;14.60;99.90;;;;;;5070674;28;21012;-81
2021/08/30 07:09:15;;;;;;;12.90;11.50;;;14.50;99.90;;;;;;5055258;28;20637;-81
2021/08/30 07:11:42;;;;;;;12.93;10.68;;;14.60;99.90;;;;;;5064955;28;20732;-82
2021/08/30 07:14:09;;;;;;;13.20;10.70;;;14.60;99.90;;;;;;5063773;28;20199;-82
2021/08/30 07:16:36;;;;;;;15.53;12.30;;;14.50;99.90;;;;;;5064912;28;20673;-82
2021/08/30 07:19:04;;;;;;;12.43;11.23;;;14.40;99.90;;;;;;5065296;28;20629;-83
2021/08/30 07:21:31;;;;;;;14.00;10.60;;;14.40;99.90;;;;;;5062881;28;20622;-82
2021/08/30 07:23:58;;;;;;;12.00;10.83;;;14.40;99.90;;;;;;5064641;28;20617;-82
2021/08/30 07:26:25;;;;;;;15.83;12.67;;;14.60;99.90;;;;;;5056991;28;21421;-81
2021/08/30 07:28:52;;;;;;;13.80;12.27;;;14.70;99.90;;;;;;5061333;28;21097;-82
2021/08/30 07:31:19;;;;;;;13.03;11.33;;;14.90;99.90;;;;;;5065585;28;20644;-82
2021/08/30 07:33:47;;;;;;;12.13;10.83;;;15.00;99.90;;;;;;5060266;28;20633;-82
2021/08/30 07:36:17;;;;;;;11.27;10.10;;;15.00;99.90;;;;;;5063896;28;20656;-81
2021/08/30 07:38:44;;;;;;;13.93;10.13;;;14.90;99.90;;;;;;5060585;28;20679;-82
2021/08/30 07:41:10;;;;;;;13.13;11.83;;;14.90;99.90;;;;;;5068389;28;20614;-82
2021/08/30 07:43:37;;;;;;;12.87;11.57;;;14.90;99.90;;;;;;5061757;28;20644;-82
2021/08/30 07:46:04;;;;;;;11.97;10.13;;;14.90;99.90;;;;;;5062829;28;20630;-82
2021/08/30 07:48:31;;;;;;;10.63;9.53;;;14.90;99.90;;;;;;5064833;28;20609;-82
2021/08/30 07:50:59;;;;;;;10.33;9.40;;;14.90;99.90;;;;;;5062491;28;20615;-82
2021/08/30 07:53:29;;;;;;;11.00;9.57;;;14.80;99.90;;;;;;5057658;28;20622;-83
2021/08/30 07:55:57;;;;;;;13.77;9.80;;;14.80;99.90;;;;;;5064114;28;20636;-82
2021/08/30 07:58:24;;;;;;;10.77;9.67;;;14.90;99.90;;;;;;5064788;28;20613;-82
2021/08/30 08:00:51;;;;;;;11.37;10.00;;;14.80;99.90;;;;;;5064094;28;20615;-82
2021/08/30 08:03:18;;;;;;;10.43;9.33;;;14.70;99.90;;;;;;5060099;28;20976;-80
2021/08/30 08:05:45;;;;;;;10.37;9.37;;;14.70;99.90;;;;;;5062639;28;20618;-81
2021/08/30 08:08:12;;;;;;;10.40;9.40;;;14.80;99.90;;;;;;5057773;28;20639;-82
2021/08/30 08:10:42;;;;;;;9.33;8.33;;;14.70;99.90;;;;;;5061629;28;20618;-80
2021/08/30 08:13:10;;;;;;;9.80;8.83;;;14.70;99.90;;;;;;5051521;28;20619;-81
2021/08/30 08:15:37;;;;;;;10.93;9.50;;;14.70;99.90;;;;;;5054410;28;20665;-81
2021/08/30 08:18:05;;;;;;;12.37;10.07;;;14.60;99.90;;;;;;5063691;28;20664;-81
2021/08/30 08:20:32;;;;;;;11.23;10.17;;;14.70;99.90;;;;;;5064551;28;20721;-81
2021/08/30 08:22:59;;;;;;;10.10;9.10;;;14.80;99.90;;;;;;5062525;28;20611;-80
2021/08/30 08:25:26;;;;;;;11.83;10.63;;;14.80;99.90;;;;;;5061134;28;20611;-82
2021/08/30 08:27:57;;;;;;;10.03;9.07;;;14.80;99.90;;;;;;5056249;28;20703;-80
2021/08/30 08:30:24;;;;;;;9.77;8.83;;;14.90;99.90;;;;;;5062129;28;21024;-81
2021/08/30 08:32:51;;;;;;;10.87;9.03;;;14.90;99.90;;;;;;5064018;28;20619;-80
2021/08/30 08:35:18;;;;;;;10.97;9.97;;;15.00;99.90;;;;;;5060657;28;20620;-80
2021/08/30 08:37:45;;;;;;;9.60;8.60;;;15.00;99.90;;;;;;5062658;28;20660;-80
2021/08/30 08:40:12;;;;;;;8.30;7.50;;;15.00;99.90;;;;;;5061213;28;20675;-82
2021/08/30 08:42:42;;;;;;;8.73;7.43;;;15.00;99.90;;;;;;5064897;28;20626;-81
2021/08/30 08:45:13;;;;;;;9.20;7.80;;;15.00;99.90;;;;;;5065412;28;20622;-81
2021/08/30 08:47:41;;;;;;;8.60;7.80;;;15.00;99.90;;;;;;5060627;28;20622;-81
2021/08/30 08:50:11;;;;;;;8.87;7.13;;;15.10;99.90;;;;;;5052028;28;20603;-80
2021/08/30 08:52:41;;;;;;;10.50;8.37;;;15.00;99.90;;;;;;5049930;28;20672;-81
2021/08/30 08:55:09;;;;;;;9.10;7.80;;;15.00;99.90;;;;;;5053719;28;20625;-81
2021/08/30 08:57:36;;;;;;;8.27;7.47;;;15.00;99.90;;;;;;5063437;28;20645;-82
2021/08/30 09:00:07;;;;;;;8.70;7.33;;;15.10;99.90;;;;;;5060520;28;20645;-81
2021/08/30 09:02:35;;;;;;;9.20;7.07;;;15.00;99.90;;;;;;5060346;28;20622;-82
2021/08/30 09:05:05;;;;;;;8.47;7.60;;;15.00;99.90;;;;;;5064735;28;20645;-81
2021/08/30 09:07:35;;;;;;;7.40;6.70;;;14.90;99.90;;;;;;5059570;28;21225;-82
2021/08/30 09:10:04;;;;;;;7.80;7.10;;;15.00;99.90;;;;;;5061621;28;20630;-82
2021/08/30 09:12:31;;;;;;;7.57;6.87;;;15.10;99.90;;;;;;5066556;28;20634;-80
2021/08/30 09:14:58;;;;;;;7.73;6.97;;;15.30;99.90;;;;;;5066094;28;21248;-81
2021/08/30 09:17:30;;;;;;;8.40;7.63;;;15.60;99.90;;;;;;5064801;28;20696;-83
2021/08/30 09:20:01;;;;;;;9.57;7.60;;;15.70;99.90;;;;;;5068848;28;20632;-82
2021/08/30 09:22:34;;;;;;;8.90;8.10;;;15.90;99.90;;;;;;5062070;28;20630;-82
2021/08/30 09:25:06;;;;;;;8.57;7.60;;;15.90;99.90;;;;;;5055697;28;20629;-81
2021/08/30 09:27:37;;;;;;;9.77;8.80;;;15.90;99.90;;;;;;5062985;28;20693;-82
2021/08/30 09:30:05;;;;;;;10.30;8.83;;;16.00;99.90;;;;;;5062674;28;20650;-82
2021/08/30 09:32:34;;;;;;;12.40;10.53;;;16.10;99.90;;;;;;5062146;28;20622;-82
2021/08/30 09:35:04;;;;;;;9.53;8.50;;;16.10;99.90;;;;;;5063038;28;20627;-81
2021/08/30 09:37:36;;;;;;;10.60;9.50;;;16.00;99.90;;;;;;5067964;28;20742;-82
2021/08/30 09:40:05;;;;;;;11.47;9.93;;;16.10;99.90;;;;;;5068630;28;20661;-81
2021/08/30 09:42:32;;;;;;;11.50;10.30;;;16.20;99.90;;;;;;5068812;28;20625;-84
2021/08/30 09:45:09;;;;;;;10.93;9.77;;;16.40;99.90;;;;;;5055638;28;20642;-83
2021/08/30 09:47:36;;;;;;;10.87;9.83;;;16.60;99.90;;;;;;5057918;28;20629;-84
2021/08/30 09:50:11;;;;;;;12.17;10.60;;;16.50;99.90;;;;;;5058684;28;20633;-83
2021/08/30 09:52:38;;;;;;;13.53;11.13;;;16.40;99.90;;;;;;5063343;28;20718;-83
2021/08/30 09:55:06;;;;;;;10.67;9.60;;;16.20;99.90;;;;;;5059798;28;20631;-82
2021/08/30 09:57:34;;;;;;;10.00;9.10;;;16.20;99.90;;;;;;5062777;28;20670;-83
2021/08/30 10:00:04;;;;;;;12.93;10.40;;;16.20;99.90;;;;;;5063948;28;20629;-83
2021/08/30 10:02:31;;;;;;;10.77;9.77;;;16.00;99.90;;;;;;5061109;28;20639;-82
2021/08/30 10:05:01;;;;;;;14.50;11.13;;;16.00;99.90;;;;;;5065108;28;20640;-82
2021/08/30 10:07:31;;;;;;;12.17;10.77;;;16.00;99.90;;;;;;5067312;28;20678;-82
2021/08/30 10:10:01;;;;;;;10.80;9.70;;;15.90;99.90;;;;;;5069339;28;20629;-80
2021/08/30 10:12:28;;;;;;;10.60;9.50;;;15.90;99.90;;;;;;5074517;28;20619;-81
2021/08/30 10:14:56;;;;;;;12.87;11.57;;;15.80;99.90;;;;;;5072112;28;21018;-81
2021/08/30 10:17:23;;;;;;;11.37;10.37;;;15.80;99.90;;;;;;5072591;28;20716;-82
2021/08/30 10:19:57;;;;;;;13.47;12.10;;;15.80;99.90;;;;;;5067860;28;20631;-82
2021/08/30 10:22:25;;;;;;;17.00;12.93;;;15.70;99.90;;;;;;5065519;28;20656;-82
2021/08/30 10:24:53;;;;;;;12.97;11.67;;;15.80;99.90;;;;;;5065927;28;20640;-82
2021/08/30 10:27:32;;;;;;;13.33;11.93;;;15.80;99.90;;;;;;5073412;28;20637;-82
2021/08/30 10:30:08;;;;;;;15.43;12.50;;;15.80;99.90;;;;;;5068317;28;20708;-82
2021/08/30 10:32:43;;;;;;;12.87;11.50;;;15.90;99.90;;;;;;5061242;28;21172;-81
2021/08/30 10:35:18;;;;;;;14.00;12.67;;;16.00;99.90;;;;;;5058881;28;20634;-82
2021/08/30 10:37:55;;;;;;;13.23;12.00;;;16.00;99.90;;;;;;5064797;28;20669;-82
2021/08/30 10:40:27;;;;;;;12.63;11.33;;;16.00;99.90;;;;;;5064741;28;20626;-82
2021/08/30 10:43:06;;;;;;;11.30;10.20;;;15.80;99.90;;;;;;5068647;28;20630;-81
2021/08/30 10:45:36;;;;;;;13.23;12.03;;;15.70;99.90;;;;;;5061076;28;20619;-81
2021/08/30 10:48:05;;;;;;;13.17;11.87;;;15.60;99.90;;;;;;5060889;28;21013;-80
2021/08/30 10:50:37;;;;;;;12.70;11.40;;;15.80;99.90;;;;;;5067832;28;20633;-81
2021/08/30 10:53:06;;;;;;;13.97;10.13;;;15.70;99.90;;;;;;5071705;28;20980;-82
2021/08/30 10:55:39;;;;;;;11.93;10.77;;;15.90;99.90;;;;;;5065304;28;20636;-82
2021/08/30 10:58:16;;;;;;;13.10;11.80;;;16.00;99.90;;;;;;5071191;28;20667;-82
2021/08/30 11:00:43;;;;;;;14.33;12.93;;;16.30;99.90;;;;;;5071636;28;20620;-82
2021/08/30 11:03:11;;;;;;;10.93;9.83;;;16.50;99.90;;;;;;5069493;28;20628;-81
2021/08/30 11:05:40;;;;;;;10.70;9.57;;;16.40;99.90;;;;;;5071974;28;20617;-81
2021/08/30 11:08:07;;;;;;;14.20;12.70;;;16.30;99.90;;;;;;5059274;28;20655;-80
2021/08/30 11:10:34;;;;;;;12.70;11.40;;;16.30;99.90;;;;;;5061833;28;20643;-82
2021/08/30 11:13:03;;;;;;;15.03;10.83;;;16.10;99.90;;;;;;5057623;28;20639;-82
2021/08/30 11:15:34;;;;;;;11.47;10.37;;;16.00;99.90;;;;;;5067193;28;20626;-80
2021/08/30 11:18:03;;;;;;;10.20;9.20;;;16.10;99.90;;;;;;5064938;28;21224;-80
2021/08/30 11:20:31;;;;;;;13.53;10.70;;;15.80;99.90;;;;;;5066197;28;20656;-82
2021/08/30 11:22:58;;;;;;;9.87;8.87;;;15.60;99.90;;;;;;5064042;28;20621;-82
2021/08/30 11:25:35;;;;;;;10.10;9.10;;;15.60;99.90;;;;;;5059737;28;20692;-82
2021/08/30 11:28:13;;;;;;;13.97;10.97;;;15.60;99.90;;;;;;5067024;28;20634;-82
2021/08/30 11:30:41;;;;;;;11.77;10.57;;;15.80;99.90;;;;;;5062760;28;21028;-82
2021/08/30 11:33:08;;;;;;;14.70;11.00;;;16.00;99.90;;;;;;5067697;28;20631;-82
2021/08/30 11:35:35;;;;;;;13.90;11.80;;;16.20;99.90;;;;;;5067324;28;20628;-83
2021/08/30 11:38:11;;;;;;;12.10;10.53;;;16.50;99.90;;;;;;5063849;28;20663;-83
2021/08/30 11:40:38;;;;;;;12.97;11.70;;;16.60;99.90;;;;;;5060573;28;20632;-82
2021/08/30 11:43:14;;;;;;;10.87;9.77;;;16.50;99.90;;;;;;5066875;28;20635;-82
2021/08/30 11:45:41;;;;;;;12.20;11.00;;;16.40;99.90;;;;;;5064353;28;20628;-82
2021/08/30 11:48:15;;;;;;;9.83;8.83;;;16.20;99.90;;;;;;5066943;28;20630;-82
2021/08/30 11:50:42;;;;;;;11.13;10.13;;;16.20;99.90;;;;;;5068067;28;20706;-82
2021/08/30 11:53:13;;;;;;;11.53;10.33;;;16.40;99.90;;;;;;5062845;28;20620;-82
2021/08/30 11:55:40;;;;;;;13.53;10.60;;;16.30;99.90;;;;;;5058417;28;20636;-83
2021/08/30 11:58:08;;;;;;;10.77;9.67;;;15.90;99.90;;;;;;5066953;28;21313;-83
2021/08/30 12:00:37;;;;;;;12.13;10.43;;;15.90;99.90;;;;;;5067062;28;20618;-82
2021/08/30 12:03:14;;;;;;;11.77;10.67;;;16.00;99.90;;;;;;5066456;28;20653;-82
2021/08/30 12:05:45;;;;;;;10.87;9.77;;;16.20;99.90;;;;;;5064836;28;20608;-82
2021/08/30 12:08:11;;;;;;;12.00;10.83;;;16.30;99.90;;;;;;5064232;28;20717;-83
2021/08/30 12:10:39;;;;;;;12.70;11.57;;;16.30;99.90;;;;;;5062037;28;20640;-83
2021/08/30 12:15:51;;;;;;;11.97;10.80;;;16.30;99.90;;;;;;5058785;28;20626;-81
2021/08/30 12:18:19;;;;;;;12.87;10.73;;;16.40;99.90;;;;;;5059135;28;21441;-82
2021/08/30 12:20:47;;;;;;;11.67;10.60;;;16.40;99.90;;;;;;5062741;28;20663;-82
2021/08/30 12:23:19;;;;;;;11.80;10.70;;;16.40;99.90;;;;;;5061949;28;20629;-82
2021/08/30 12:25:48;;;;;;;12.00;9.90;;;16.40;99.90;;;;;;5062966;28;20653;-82
2021/08/30 12:28:17;;;;;;;10.90;9.80;;;16.30;99.90;;;;;;5058893;28;21378;-81
2021/08/30 12:30:45;;;;;;;11.90;10.50;;;16.30;99.90;;;;;;5065164;28;20619;-81
2021/08/30 12:33:17;;;;;;;12.47;11.17;;;16.30;99.90;;;;;;5047578;28;20632;-82
2021/08/30 12:35:46;;;;;;;10.80;9.80;;;16.20;99.90;;;;;;5048732;28;20700;-83
2021/08/30 12:38:16;;;;;;;12.70;10.83;;;16.30;99.90;;;;;;5051458;28;20664;-82
2021/08/30 12:40:45;;;;;;;11.90;10.70;;;16.10;99.90;;;;;;5064696;28;20762;-81
2021/08/30 12:43:12;;;;;;;11.43;10.33;;;16.10;99.90;;;;;;5057464;28;21474;-83
2021/08/30 12:45:40;;;;;;;11.77;10.63;;;16.00;99.90;;;;;;5056317;28;20636;-82
2021/08/30 12:48:07;;;;;;;12.97;11.23;;;16.00;99.90;;;;;;5056073;28;20988;-81
2021/08/30 12:50:36;;;;;;;12.40;10.30;;;15.90;99.90;;;;;;5064775;28;20846;-81
2021/08/30 12:53:04;;;;;;;13.47;11.30;;;15.90;99.90;;;;;;5063184;28;20613;-81